Logo Brunsvigian Airlines

Die löwenstarke Airline aus Braunschweig

Charts auf der Seite von VATEUD

EDVE 041950Z 10003KT CAVOK 17/17 Q1016

flugnummerleerzeichenankunftleerzeichenplanmaessig
ABS100__FRANKFURT________06doppelpunkt00
ABS600__LAHR_____________06doppelpunkt00
ABS200__ENGADIN__________06doppelpunkt00
ABS500__MUENSTER-OSNABRUE06doppelpunkt00
ABS102__SIEGERLAND_______09doppelpunkt20
ABS104__MUENSTER-OSNABRUE12doppelpunkt15
ABS604__NIZZA____________13doppelpunkt00
ABS106__STUTTGART________14doppelpunkt40
ABS205__NIZZA____________15doppelpunkt00
ABS606__INNSBRUCK________17doppelpunkt30

flugnummerleerzeichenankunftleerzeichenplanmaessig
ABS101__FRANKFURT________08doppelpunkt40
ABS103__SIEGERLAND_______11doppelpunkt15
ABS603__LAHR_____________12doppelpunkt30
ABS204__LONDON_CITY______14doppelpunkt00
ABS105__MUENSTER-OSNABRUE14doppelpunkt00
ABS605__NIZZA____________17doppelpunkt00
ABS107__STUTTGART________17doppelpunkt35
ABS505__MUENSTER-OSNABRUE18doppelpunkt00
ABS207__LONDON_CITY______20doppelpunkt00
ABS607__INNSBRUCK________20doppelpunkt00

Der Flughafen Braunschweig-Wolfsburg, nördlich von Braunschweig gelegen dient als Basis und gleichzeitig als Namenspate der Brunsvigian. Durch seine Lage bietet der Flughafen einen guten Ausgangspunkt für Geschäftsreisende und Privatpersonen

Kontakt   Impressum

Valid HTML 4.01 Transitional CSS ist valide!